Time;durP1;ratioP1;P1;durP2;ratioP2;P2;SDS_P1;SDS_P2;PMS_P1;PMS_P2;Temp;Humidity;BMP_temperature;BMP_pressure;BME280_temperature;BME280_humidity;BME280_pressure;Samples;Min_cycle;Max_cycle;Signal;HPM_P1;HPM_P2
2023/10/31 00:01:12;;;;;;;0.30;0.20;;;;;;;13.69;100.00;98538.09;5032563;28;20966;-53
2023/10/31 00:03:40;;;;;;;0.30;0.20;;;;;;;13.67;100.00;98541.84;5029570;28;20476;-53
2023/10/31 00:06:06;;;;;;;0.30;0.20;;;;;;;13.67;100.00;98550.69;5020826;28;20600;-53
2023/10/31 00:08:33;;;;;;;0.30;0.20;;;;;;;13.66;100.00;98564.16;5032434;28;20807;-53
2023/10/31 00:10:59;;;;;;;0.30;0.20;;;;;;;13.67;100.00;98555.19;5032532;28;20452;-53
2023/10/31 00:13:26;;;;;;;0.30;0.20;;;;;;;13.68;100.00;98557.75;5032426;28;20451;-53
2023/10/31 00:15:52;;;;;;;0.30;0.20;;;;;;;13.64;100.00;98543.75;5024430;28;20477;-53
2023/10/31 00:18:19;;;;;;;0.30;0.20;;;;;;;13.57;100.00;98553.16;5028179;28;20811;-53
2023/10/31 00:20:46;;;;;;;0.30;0.20;;;;;;;13.70;100.00;98546.97;5032535;28;20427;-53
2023/10/31 00:23:13;;;;;;;0.30;0.20;;;;;;;13.67;100.00;98550.69;5019611;28;20458;-53
2023/10/31 00:25:40;;;;;;;0.30;0.20;;;;;;;13.73;100.00;98549.44;5032271;28;20547;-53
2023/10/31 00:28:06;;;;;;;0.30;0.20;;;;;;;13.77;100.00;98542.91;5031117;28;20505;-53
2023/10/31 00:30:33;;;;;;;0.30;0.20;;;;;;;13.68;100.00;98543.53;5021697;28;20978;-53
2023/10/31 00:32:59;;;;;;;0.30;0.20;;;;;;;13.64;100.00;98557.13;5032110;28;20555;-53
2023/10/31 00:35:25;;;;;;;0.30;0.20;;;;;;;13.63;100.00;98554.56;5032208;28;20426;-53
2023/10/31 00:37:52;;;;;;;0.30;0.20;;;;;;;13.68;100.00;98560.41;5032103;28;20489;-53
2023/10/31 00:40:18;;;;;;;0.30;0.20;;;;;;;13.61;100.00;98548.47;5032406;28;20480;-53
2023/10/31 00:42:45;;;;;;;0.30;0.20;;;;;;;13.53;100.00;98554.31;5031971;28;20446;-53
2023/10/31 00:45:11;;;;;;;0.30;0.20;;;;;;;13.53;100.00;98542.78;5034074;28;20494;-53
2023/10/31 00:47:38;;;;;;;0.30;0.20;;;;;;;13.39;100.00;98556.22;5036050;28;20493;-53
2023/10/31 00:50:05;;;;;;;0.30;0.20;;;;;;;13.28;100.00;98546.28;5036159;28;20962;-53
2023/10/31 00:52:31;;;;;;;0.30;0.20;;;;;;;13.31;100.00;98546.09;5035916;28;20484;-53
2023/10/31 00:54:58;;;;;;;0.30;0.20;;;;;;;13.45;100.00;98547.81;5036029;28;20929;-53
2023/10/31 00:57:24;;;;;;;0.30;0.20;;;;;;;13.38;99.70;98552.69;5035967;28;20507;-53
2023/10/31 00:59:51;;;;;;;0.30;0.20;;;;;;;13.20;99.96;98562.81;5030480;28;20627;-53
2023/10/31 01:02:17;;;;;;;0.30;0.20;;;;;;;13.13;99.83;98561.47;5035905;28;20428;-53
2023/10/31 01:04:44;;;;;;;0.30;0.20;;;;;;;13.23;99.09;98559.06;5024076;28;20534;-53
2023/10/31 01:07:12;;;;;;;0.30;0.20;;;;;;;13.32;99.20;98569.16;5032421;28;20849;-53
2023/10/31 01:09:38;;;;;;;0.30;0.20;;;;;;;13.31;99.67;98580.78;5035825;28;20452;-53
2023/10/31 01:12:05;;;;;;;0.30;0.20;;;;;;;13.14;99.74;98586.31;5035703;28;20798;-53
2023/10/31 01:14:32;;;;;;;0.30;0.20;;;;;;;13.05;99.59;98590.47;5035801;28;20473;-53
2023/10/31 01:16:58;;;;;;;0.30;0.20;;;;;;;13.09;99.75;98588.47;5022304;28;20440;-53
2023/10/31 01:19:24;;;;;;;0.30;0.20;;;;;;;13.09;99.67;98591.97;5035602;28;20462;-53
2023/10/31 01:21:51;;;;;;;0.30;0.20;;;;;;;13.16;99.00;98592.44;5032306;28;20942;-53
2023/10/31 01:24:17;;;;;;;0.30;0.20;;;;;;;13.04;99.00;98583.44;5026661;28;20984;-53
2023/10/31 01:26:44;;;;;;;0.30;0.20;;;;;;;13.06;99.45;98592.19;5035808;28;20468;-53
2023/10/31 01:29:10;;;;;;;0.30;0.20;;;;;;;12.99;99.26;98583.72;5025541;28;20431;-53
2023/10/31 01:31:37;;;;;;;0.30;0.20;;;;;;;12.91;99.39;98587.88;5033716;28;20820;-53
2023/10/31 01:34:21;;;;;;;0.30;0.20;;;;;;;12.92;99.72;98584.25;5035444;28;20468;-53
2023/10/31 01:36:48;;;;;;;0.30;0.20;;;;;;;13.04;99.21;98578.09;5035574;28;20446;-53
2023/10/31 01:39:14;;;;;;;0.30;0.20;;;;;;;12.95;99.27;98579.56;5035284;28;20501;-53
2023/10/31 01:41:42;;;;;;;0.30;0.20;;;;;;;12.87;99.61;98589.84;5035614;28;20538;-53
2023/10/31 01:44:09;;;;;;;0.30;0.20;;;;;;;12.91;99.18;98593.19;5035163;28;20849;-53
2023/10/31 01:46:36;;;;;;;0.30;0.20;;;;;;;12.82;99.73;98591.97;5035017;28;20483;-53
2023/10/31 01:49:03;;;;;;;0.30;0.20;;;;;;;12.74;99.65;98607.59;5035228;28;20451;-53
2023/10/31 01:51:29;;;;;;;0.30;0.20;;;;;;;12.84;100.00;98607.88;5035347;28;20458;-53
2023/10/31 01:53:56;;;;;;;0.30;0.20;;;;;;;12.68;100.00;98614.19;5034934;28;20506;-53
2023/10/31 01:56:23;;;;;;;0.30;0.20;;;;;;;12.66;100.00;98620.59;5034770;28;20466;-53
2023/10/31 01:58:50;;;;;;;0.30;0.20;;;;;;;12.68;99.70;98624.00;5029891;28;20466;-53
2023/10/31 02:01:16;;;;;;;0.30;0.20;;;;;;;12.79;99.01;98623.31;5035435;28;20458;-53
2023/10/31 02:03:43;;;;;;;0.30;0.20;;;;;;;12.65;99.96;98625.06;5031376;28;20482;-53
2023/10/31 02:06:09;;;;;;;0.30;0.20;;;;;;;12.57;99.99;98627.34;5024043;28;20447;-53
2023/10/31 02:08:36;;;;;;;0.30;0.20;;;;;;;12.60;100.00;98624.47;5034822;28;20455;-53
2023/10/31 02:11:03;;;;;;;0.30;0.20;;;;;;;12.51;100.00;98624.22;5034848;28;20804;-53
2023/10/31 02:13:30;;;;;;;0.30;0.20;;;;;;;12.41;100.00;98627.47;5034437;28;20543;-53
2023/10/31 02:15:56;;;;;;;0.30;0.20;;;;;;;12.41;100.00;98635.47;5025646;28;20878;-53
2023/10/31 02:18:23;;;;;;;0.30;0.20;;;;;;;12.48;100.00;98627.94;5013005;28;20863;-53
2023/10/31 02:20:49;;;;;;;0.30;0.20;;;;;;;12.44;100.00;98635.25;5034590;28;20441;-53
2023/10/31 02:23:16;;;;;;;0.30;0.20;;;;;;;12.49;100.00;98639.47;5004228;28;20534;-52
2023/10/31 02:25:43;;;;;;;1.47;1.37;;;;;;;12.49;100.00;98631.47;5034489;28;20509;-53
2023/10/31 02:28:09;;;;;;;0.30;0.20;;;;;;;12.54;100.00;98638.22;5032474;28;20590;-53
2023/10/31 02:30:35;;;;;;;0.30;0.20;;;;;;;12.53;100.00;98636.50;5024238;28;20451;-53
2023/10/31 02:33:02;;;;;;;0.30;0.20;;;;;;;12.53;100.00;98633.84;5034198;28;20477;-53
2023/10/31 02:35:29;;;;;;;0.30;0.20;;;;;;;12.56;100.00;98625.63;5034098;28;20998;-53
2023/10/31 02:37:56;;;;;;;0.30;0.20;;;;;;;12.58;100.00;98629.06;5034085;28;20444;-53
2023/10/31 02:40:22;;;;;;;0.30;0.20;;;;;;;12.57;100.00;98631.81;5034217;28;20430;-53
2023/10/31 02:42:49;;;;;;;0.30;0.20;;;;;;;12.54;100.00;98624.03;5033864;28;20551;-53
2023/10/31 02:45:15;;;;;;;0.30;0.20;;;;;;;12.44;100.00;98623.75;5034047;28;20790;-53
2023/10/31 02:47:42;;;;;;;0.30;0.20;;;;;;;12.36;100.00;98636.72;5034174;28;20856;-53
2023/10/31 02:50:08;;;;;;;0.30;0.20;;;;;;;12.30;100.00;98645.06;5034115;28;20422;-53
2023/10/31 02:52:36;;;;;;;0.30;0.20;;;;;;;12.21;100.00;98643.00;5033950;28;20465;-53
2023/10/31 02:55:02;;;;;;;0.30;0.20;;;;;;;12.15;100.00;98644.22;5034144;28;20451;-53
2023/10/31 02:57:29;;;;;;;0.30;0.20;;;;;;;12.05;100.00;98659.03;5033755;28;20541;-53
2023/10/31 02:59:55;;;;;;;0.30;0.20;;;;;;;11.99;100.00;98660.28;5013994;28;20788;-53
2023/10/31 03:02:22;;;;;;;0.30;0.20;;;;;;;11.89;100.00;98656.44;5015590;28;20509;-53
2023/10/31 03:04:49;;;;;;;0.30;0.20;;;;;;;11.89;100.00;98661.75;5021306;28;20556;-53
2023/10/31 03:07:15;;;;;;;0.30;0.20;;;;;;;11.90;100.00;98665.28;5029801;28;20465;-53
2023/10/31 03:09:41;;;;;;;0.30;0.20;;;;;;;11.99;100.00;98662.09;5033625;28;20517;-53
2023/10/31 03:12:08;;;;;;;0.30;0.20;;;;;;;12.08;100.00;98664.19;5033311;28;20575;-53
2023/10/31 03:14:34;;;;;;;0.30;0.20;;;;;;;12.14;100.00;98667.31;5033711;28;20446;-53
2023/10/31 03:17:01;;;;;;;0.30;0.20;;;;;;;12.12;100.00;98665.72;5020469;28;20815;-53
2023/10/31 03:19:27;;;;;;;0.30;0.20;;;;;;;12.22;100.00;98666.00;5033576;28;20571;-53
2023/10/31 03:21:54;;;;;;;0.30;0.20;;;;;;;12.34;100.00;98663.47;5029284;28;20435;-53
2023/10/31 03:24:20;;;;;;;0.30;0.20;;;;;;;12.37;100.00;98667.72;5024966;28;20569;-53
2023/10/31 03:26:46;;;;;;;0.30;0.20;;;;;;;12.52;100.00;98668.59;5032979;28;20972;-53
2023/10/31 03:29:13;;;;;;;0.30;0.20;;;;;;;12.52;100.00;98674.78;5023110;28;20434;-53
2023/10/31 03:31:39;;;;;;;0.30;0.20;;;;;;;12.58;100.00;98669.03;5031536;28;20448;-53
2023/10/31 03:34:06;;;;;;;0.30;0.20;;;;;;;12.53;100.00;98671.16;5033107;28;20450;-53
2023/10/31 03:36:32;;;;;;;0.30;0.20;;;;;;;12.48;100.00;98669.75;5033043;28;20469;-53
2023/10/31 03:38:59;;;;;;;0.30;0.20;;;;;;;12.61;100.00;98676.88;5032982;28;20466;-53
2023/10/31 03:41:25;;;;;;;0.30;0.20;;;;;;;12.49;100.00;98666.13;5033065;28;20465;-53
2023/10/31 03:43:52;;;;;;;0.30;0.20;;;;;;;12.52;100.00;98674.78;5033098;28;20559;-53
2023/10/31 03:46:18;;;;;;;0.30;0.20;;;;;;;12.57;100.00;98670.00;5033023;28;20428;-53
2023/10/31 03:48:45;;;;;;;0.30;0.20;;;;;;;12.54;100.00;98672.84;5032847;28;20470;-52
2023/10/31 03:51:11;;;;;;;0.30;0.20;;;;;;;12.53;100.00;98679.16;5032824;28;20456;-53
2023/10/31 03:53:38;;;;;;;0.30;0.20;;;;;;;12.64;100.00;98679.34;5032630;28;21079;-53
2023/10/31 03:56:04;;;;;;;0.30;0.20;;;;;;;12.62;100.00;98678.56;5032769;28;20458;-53
2023/10/31 03:58:31;;;;;;;0.30;0.20;;;;;;;12.71;100.00;98685.97;5028289;28;20451;-53
2023/10/31 04:00:57;;;;;;;0.30;0.20;;;;;;;12.88;100.00;98697.38;5032094;28;20838;-53
2023/10/31 04:03:24;;;;;;;0.30;0.20;;;;;;;12.72;100.00;98700.16;5049282;22;20556;-52
2023/10/31 04:05:50;;;;;;;0.30;0.20;;;;;;;12.81;100.00;98701.41;5046194;28;20422;-51
2023/10/31 04:08:16;;;;;;;0.30;0.20;;;;;;;12.78;100.00;98705.13;5044912;28;20501;-52
2023/10/31 04:10:43;;;;;;;0.30;0.20;;;;;;;12.82;100.00;98705.78;5052560;28;20451;-52
2023/10/31 04:13:09;;;;;;;0.30;0.20;;;;;;;12.87;100.00;98709.84;5052350;28;20450;-52
2023/10/31 04:15:36;;;;;;;0.30;0.20;;;;;;;12.74;100.00;98708.91;5052409;28;20428;-52
2023/10/31 04:18:03;;;;;;;0.30;0.20;;;;;;;12.77;100.00;98713.22;5052345;28;20512;-51
2023/10/31 04:20:30;;;;;;;0.30;0.20;;;;;;;12.71;100.00;98709.97;5026301;28;20450;-50
2023/10/31 04:22:56;;;;;;;0.30;0.20;;;;;;;12.81;99.65;98723.59;5039983;28;20629;-51
2023/10/31 04:25:23;;;;;;;0.30;0.20;;;;;;;12.76;99.83;98723.03;5052381;28;20432;-50
2023/10/31 04:27:50;;;;;;;0.30;0.20;;;;;;;12.78;99.52;98714.94;5052143;28;20556;-51
2023/10/31 04:30:16;;;;;;;0.30;0.20;;;;;;;12.66;99.31;98720.06;5040387;28;20422;-51
2023/10/31 04:32:42;;;;;;;0.30;0.20;;;;;;;12.63;99.81;98719.41;5052143;28;20521;-51
2023/10/31 04:35:09;;;;;;;0.30;0.20;;;;;;;12.67;99.50;98723.59;5051952;28;20876;-51
2023/10/31 04:37:36;;;;;;;0.30;0.20;;;;;;;12.71;100.00;98731.31;5051706;28;20798;-51
2023/10/31 04:40:02;;;;;;;0.30;0.20;;;;;;;12.53;100.00;98737.78;5052291;28;20447;-50
2023/10/31 04:42:29;;;;;;;0.30;0.20;;;;;;;12.60;100.00;98725.78;5052075;28;20457;-50
2023/10/31 04:44:55;;;;;;;0.30;0.20;;;;;;;12.63;100.00;98732.75;5052278;28;20824;-51
2023/10/31 04:47:22;;;;;;;0.30;0.20;;;;;;;12.42;100.00;98741.09;5052044;28;20500;-51
2023/10/31 04:49:48;;;;;;;0.30;0.20;;;;;;;12.45;100.00;98732.06;5051884;28;20451;-51
2023/10/31 04:52:16;;;;;;;0.30;0.20;;;;;;;12.28;100.00;98733.09;5051815;28;20447;-51
2023/10/31 04:54:43;;;;;;;0.30;0.20;;;;;;;12.28;100.00;98733.09;5052101;28;20466;-52
2023/10/31 04:57:09;;;;;;;0.30;0.20;;;;;;;12.30;100.00;98738.31;5051698;28;20963;-52
2023/10/31 04:59:36;;;;;;;0.30;0.20;;;;;;;12.20;100.00;98731.81;5046221;28;20426;-52
2023/10/31 05:02:02;;;;;;;0.30;0.20;;;;;;;12.37;99.93;98742.34;5051661;28;20446;-52
2023/10/31 05:04:29;;;;;;;0.30;0.20;;;;;;;12.11;99.92;98739.44;5041720;28;20486;-52
2023/10/31 05:06:56;;;;;;;0.30;0.20;;;;;;;12.22;99.78;98738.78;5046550;28;20429;-52
2023/10/31 05:09:23;;;;;;;0.30;0.20;;;;;;;12.25;99.97;98746.59;5051565;28;20516;-52
2023/10/31 05:11:50;;;;;;;0.30;0.20;;;;;;;12.32;99.43;98760.38;5051601;28;20520;-52
2023/10/31 05:14:16;;;;;;;0.30;0.20;;;;;;;12.37;99.00;98761.84;5051514;28;20473;-52
2023/10/31 05:16:43;;;;;;;0.30;0.20;;;;;;;12.22;99.44;98769.91;5037872;28;20927;-51
2023/10/31 05:19:10;;;;;;;0.30;0.20;;;;;;;12.31;98.92;98767.53;5051517;28;20450;-52
2023/10/31 05:21:37;;;;;;;0.30;0.20;;;;;;;12.34;99.41;98782.50;5049970;28;20421;-51
2023/10/31 05:24:04;;;;;;;0.30;0.20;;;;;;;12.42;98.89;98774.88;5040970;28;20466;-52
2023/10/31 05:26:30;;;;;;;0.30;0.20;;;;;;;12.48;98.65;98774.53;5051547;28;20516;-52
2023/10/31 05:28:57;;;;;;;0.30;0.20;;;;;;;12.48;98.03;98779.84;5043249;28;20487;-52
2023/10/31 05:31:24;;;;;;;0.30;0.20;;;;;;;12.90;97.30;98780.84;5049355;28;20584;-53
2023/10/31 05:33:52;;;;;;;0.30;0.20;;;;;;;12.83;96.33;98783.00;5055177;28;20961;-53
2023/10/31 05:36:20;;;;;;;0.30;0.20;;;;;;;12.60;96.52;98783.56;5055231;28;20450;-53
2023/10/31 05:38:47;;;;;;;0.30;0.20;;;;;;;12.71;96.10;98781.09;5055271;28;20425;-53
2023/10/31 05:41:14;;;;;;;0.30;0.20;;;;;;;12.70;96.63;98787.38;5055025;28;20457;-52
2023/10/31 05:43:41;;;;;;;0.30;0.20;;;;;;;13.12;95.37;98786.53;5055084;28;20987;-52
2023/10/31 05:46:13;;;;;;;0.30;0.20;;;;;;;12.81;95.36;98792.91;5054911;28;20450;-52
2023/10/31 05:48:43;;;;;;;0.30;0.20;;;;;;;12.91;95.95;98793.22;5055058;28;20835;-53
2023/10/31 05:51:13;;;;;;;0.30;0.20;;;;;;;13.12;94.76;98799.00;5055232;28;20455;-53
2023/10/31 05:53:41;;;;;;;0.30;0.20;;;;;;;12.97;95.49;98800.81;5055122;28;20529;-53
2023/10/31 05:56:09;;;;;;;0.30;0.20;;;;;;;13.04;95.25;98802.16;5054812;28;20461;-53
2023/10/31 05:58:37;;;;;;;0.30;0.20;;;;;;;12.92;95.41;98808.25;5049753;28;20447;-53
2023/10/31 06:01:04;;;;;;;0.30;0.20;;;;;;;12.97;95.58;98806.16;5054692;28;20471;-52
2023/10/31 06:03:31;;;;;;;0.30;0.20;;;;;;;12.95;95.78;98813.41;5053438;28;20465;-52
2023/10/31 06:05:57;;;;;;;0.30;0.20;;;;;;;12.82;96.64;98815.09;5041349;28;20569;-53
2023/10/31 06:08:24;;;;;;;0.30;0.20;;;;;;;12.83;96.17;98814.16;5054843;28;20490;-52
2023/10/31 06:10:51;;;;;;;0.30;0.20;;;;;;;12.89;96.10;98827.13;5054703;28;20447;-52
2023/10/31 06:13:17;;;;;;;0.30;0.20;;;;;;;12.82;96.05;98828.44;5054436;28;20861;-52
2023/10/31 06:15:44;;;;;;;0.30;0.20;;;;;;;12.82;96.56;98829.31;5047115;28;20455;-52
2023/10/31 06:18:10;;;;;;;0.30;0.20;;;;;;;12.87;96.57;98832.53;5048814;28;20442;-51
2023/10/31 06:20:37;;;;;;;0.30;0.20;;;;;;;12.85;96.63;98839.78;5054632;28;20426;-52
2023/10/31 06:23:03;;;;;;;0.30;0.20;;;;;;;12.91;96.38;98847.41;5041445;28;20434;-52
2023/10/31 06:25:30;;;;;;;0.30;0.20;;;;;;;12.87;96.38;98843.19;5054589;28;20512;-52
2023/10/31 06:27:56;;;;;;;0.30;0.20;;;;;;;13.03;96.23;98861.81;5054121;28;20490;-52
2023/10/31 06:30:24;;;;;;;0.30;0.20;;;;;;;13.12;95.25;98863.88;5030811;28;20459;-52
2023/10/31 06:32:54;;;;;;;0.30;0.20;;;;;;;13.18;94.36;98876.91;5054376;28;20421;-53
2023/10/31 06:35:24;;;;;;;0.30;0.20;;;;;;;12.85;95.40;98882.44;5054090;28;20425;-53
2023/10/31 06:37:52;;;;;;;0.30;0.20;;;;;;;13.13;95.51;98892.28;5054074;28;20931;-51
2023/10/31 06:40:19;;;;;;;0.30;0.20;;;;;;;12.86;96.05;98891.28;5054232;28;20479;-53
2023/10/31 06:42:45;;;;;;;0.30;0.20;;;;;;;13.07;95.44;98890.00;5053070;28;20461;-52
2023/10/31 06:45:11;;;;;;;0.30;0.20;;;;;;;13.13;96.10;98905.63;5054091;28;20873;-53
2023/10/31 06:47:38;;;;;;;0.30;0.20;;;;;;;13.13;95.56;98902.94;5053957;28;20987;-52
2023/10/31 06:50:06;;;;;;;0.30;0.20;;;;;;;13.32;94.08;98908.94;5054115;28;20457;-52
2023/10/31 06:52:32;;;;;;;0.30;0.20;;;;;;;12.80;95.86;98905.00;5054185;28;20429;-52
2023/10/31 06:54:59;;;;;;;0.30;0.20;;;;;;;13.07;95.15;98915.81;5053694;28;20477;-53
2023/10/31 06:57:26;;;;;;;0.30;0.20;;;;;;;13.08;95.89;98910.41;5053746;28;20472;-51
2023/10/31 06:59:52;;;;;;;0.30;0.20;;;;;;;12.95;96.04;98914.75;5047969;28;20454;-52
2023/10/31 07:02:19;;;;;;;0.30;0.20;;;;;;;13.19;95.10;98915.97;5053755;28;20453;-51
2023/10/31 07:04:45;;;;;;;0.30;0.20;;;;;;;13.07;95.64;98921.16;5041721;28;20450;-52
2023/10/31 07:07:13;;;;;;;0.30;0.20;;;;;;;13.03;95.75;98923.16;5050586;28;20927;-51
2023/10/31 07:09:39;;;;;;;0.30;0.20;;;;;;;12.99;95.25;98934.94;5053460;28;20476;-52
2023/10/31 07:12:06;;;;;;;1.53;1.53;;;;;;;13.31;94.29;98933.03;5053520;28;20433;-52
2023/10/31 07:14:32;;;;;;;0.30;0.20;;;;;;;13.16;93.57;98937.47;5053590;28;20554;-51
2023/10/31 07:16:59;;;;;;;0.30;0.20;;;;;;;13.24;94.15;98937.03;5040230;28;20527;-52
2023/10/31 07:19:25;;;;;;;0.30;0.20;;;;;;;12.94;94.97;98947.72;5052426;28;20428;-53
2023/10/31 07:21:52;;;;;;;0.30;0.20;;;;;;;13.07;94.46;98951.38;5049440;28;20455;-53
2023/10/31 07:24:18;;;;;;;0.30;0.20;;;;;;;13.25;93.82;98958.28;5044583;28;20558;-53
2023/10/31 07:26:45;;;;;;;0.30;0.20;;;;;;;13.40;93.88;98952.94;5053306;28;20478;-52
2023/10/31 07:29:12;;;;;;;0.30;0.20;;;;;;;13.04;93.95;98952.41;5043107;28;20462;-52
2023/10/31 07:31:38;;;;;;;0.30;0.20;;;;;;;13.30;94.03;98950.88;5051336;28;20421;-52
2023/10/31 07:34:05;;;;;;;0.30;0.20;;;;;;;13.42;93.62;98953.72;5053146;28;20470;-53
2023/10/31 07:36:32;;;;;;;0.30;0.20;;;;;;;13.49;93.00;98945.25;5052953;28;20447;-52
2023/10/31 07:38:58;;;;;;;0.30;0.20;;;;;;;13.37;92.99;98947.81;5053236;28;20525;-52
2023/10/31 07:41:25;;;;;;;0.30;0.20;;;;;;;13.29;93.34;98946.47;5052994;28;20432;-51
2023/10/31 07:43:51;;;;;;;0.30;0.20;;;;;;;13.59;93.50;98956.22;5053025;28;20537;-52
2023/10/31 07:46:18;;;;;;;0.30;0.20;;;;;;;13.40;93.20;98942.28;5052597;28;20446;-52
2023/10/31 07:48:45;;;;;;;0.30;0.20;;;;;;;13.55;92.64;98952.00;5053187;28;20486;-52
2023/10/31 07:51:11;;;;;;;0.30;0.20;;;;;;;13.63;92.56;98949.72;5052549;28;20451;-52
2023/10/31 07:53:38;;;;;;;0.30;0.20;;;;;;;13.69;91.96;98949.31;5052595;28;20532;-52
2023/10/31 07:56:04;;;;;;;0.30;0.20;;;;;;;13.48;92.55;98948.00;5052758;28;20585;-52
2023/10/31 07:58:31;;;;;;;0.30;0.20;;;;;;;13.44;92.01;98959.84;5048089;28;20906;-51
2023/10/31 08:00:57;;;;;;;0.30;0.20;;;;;;;13.45;91.73;98956.22;5039299;28;20483;-52
2023/10/31 08:03:25;;;;;;;0.30;0.20;;;;;;;13.32;91.84;98962.31;5051456;28;20453;-52
2023/10/31 08:05:51;;;;;;;0.30;0.20;;;;;;;13.44;91.21;98955.34;5039364;28;20545;-52
2023/10/31 08:08:18;;;;;;;0.30;0.20;;;;;;;13.48;91.11;98953.34;5052645;28;20518;-52
2023/10/31 08:10:44;;;;;;;0.30;0.20;;;;;;;13.70;90.82;98960.84;5052824;28;20432;-51
2023/10/31 08:13:11;;;;;;;0.30;0.20;;;;;;;13.46;91.28;98956.13;5052242;28;20453;-52
2023/10/31 08:15:37;;;;;;;0.30;0.20;;;;;;;13.60;91.27;98950.78;5045815;28;20419;-51
2023/10/31 08:18:04;;;;;;;0.30;0.20;;;;;;;13.27;90.53;98967.03;5045581;28;20493;-51
2023/10/31 08:20:33;;;;;;;0.30;0.20;;;;;;;13.44;91.33;98962.50;5052438;28;20426;-53
2023/10/31 08:23:00;;;;;;;0.30;0.20;;;;;;;13.55;90.11;98971.53;5039386;28;20476;-51
2023/10/31 08:25:26;;;;;;;0.30;0.20;;;;;;;13.46;90.68;98971.28;5052642;28;20504;-53
2023/10/31 08:27:53;;;;;;;0.30;0.20;;;;;;;13.49;90.86;98971.94;5052041;28;20421;-52
2023/10/31 08:30:20;;;;;;;0.30;0.20;;;;;;;13.32;90.60;98977.47;5040164;28;20498;-52
2023/10/31 08:32:46;;;;;;;0.30;0.20;;;;;;;13.44;91.01;98989.19;5052011;28;20461;-53
2023/10/31 08:35:13;;;;;;;0.30;0.20;;;;;;;13.45;91.16;98990.91;5052118;28;20441;-52
2023/10/31 08:37:39;;;;;;;0.30;0.20;;;;;;;13.67;90.07;98991.28;5052265;28;20431;-53
2023/10/31 08:40:06;;;;;;;0.30;0.20;;;;;;;13.68;90.26;99000.16;5052524;28;20500;-51
2023/10/31 08:42:33;;;;;;;0.30;0.20;;;;;;;13.67;89.84;98999.31;5052272;28;20425;-52
2023/10/31 08:44:59;;;;;;;0.30;0.20;;;;;;;13.83;90.38;99000.06;5051906;28;20456;-52
2023/10/31 08:47:28;;;;;;;0.30;0.20;;;;;;;13.70;89.12;99001.78;5051861;28;20475;-52
2023/10/31 08:49:54;;;;;;;0.30;0.20;;;;;;;13.78;89.10;99007.50;5051977;28;20552;-52
2023/10/31 08:52:22;;;;;;;0.30;0.20;;;;;;;13.83;88.69;99008.06;5051809;28;20478;-52
2023/10/31 08:54:48;;;;;;;0.30;0.20;;;;;;;13.98;88.39;99021.41;5052105;28;20452;-53
2023/10/31 08:57:15;;;;;;;0.30;0.20;;;;;;;14.01;88.93;99016.75;5051939;28;20516;-52
2023/10/31 08:59:41;;;;;;;0.30;0.20;;;;;;;13.89;88.37;99021.06;5033892;28;20428;-52
2023/10/31 09:02:07;;;;;;;0.30;0.20;;;;;;;13.76;88.59;99030.78;5038237;28;20455;-52
2023/10/31 09:04:35;;;;;;;0.30;0.20;;;;;;;13.85;88.98;99035.56;5041240;28;20473;-52
2023/10/31 09:07:01;;;;;;;0.30;0.20;;;;;;;14.16;88.22;99034.50;5051263;28;20600;-53
2023/10/31 09:09:28;;;;;;;0.30;0.20;;;;;;;14.18;88.25;99043.28;5055695;28;20497;-52
2023/10/31 09:11:54;;;;;;;0.30;0.20;;;;;;;14.25;86.91;99049.06;5055689;28;20557;-52
2023/10/31 09:14:21;;;;;;;0.30;0.20;;;;;;;14.23;87.64;99051.84;5055576;28;20445;-52
2023/10/31 09:16:47;;;;;;;0.30;0.20;;;;;;;14.26;88.24;99053.50;5042315;28;20964;-52
2023/10/31 09:19:14;;;;;;;0.30;0.20;;;;;;;14.34;87.62;99052.97;5055816;28;20417;-52
2023/10/31 09:21:40;;;;;;;0.30;0.20;;;;;;;14.20;88.39;99061.88;5053479;28;20421;-52
2023/10/31 09:24:08;;;;;;;0.30;0.20;;;;;;;14.06;88.71;99067.22;5045351;28;20505;-51
2023/10/31 09:26:34;;;;;;;0.30;0.20;;;;;;;14.35;87.80;99066.25;5055605;28;20440;-51
2023/10/31 09:29:01;;;;;;;0.30;0.20;;;;;;;14.54;87.17;99070.47;5046777;28;20516;-52
2023/10/31 09:31:27;;;;;;;0.30;0.20;;;;;;;14.43;88.21;99074.66;5052476;28;20824;-51
2023/10/31 09:33:54;;;;;;;0.30;0.20;;;;;;;14.63;87.78;99081.41;5055678;28;20505;-52
2023/10/31 09:36:20;;;;;;;0.30;0.20;;;;;;;14.76;86.71;99077.00;5055514;28;20816;-52
2023/10/31 09:38:47;;;;;;;0.30;0.20;;;;;;;14.72;87.08;99083.50;5055479;28;20450;-52
2023/10/31 09:41:14;;;;;;;0.30;0.20;;;;;;;14.74;85.60;99089.59;5055030;28;20816;-51
2023/10/31 09:43:41;;;;;;;0.30;0.20;;;;;;;14.85;84.49;99086.25;5055058;28;20463;-52
2023/10/31 09:46:09;;;;;;;0.30;0.20;;;;;;;14.58;85.66;99088.88;5055362;28;20521;-52
2023/10/31 09:48:37;;;;;;;0.30;0.20;;;;;;;14.80;84.94;99083.00;5055282;28;20518;-53
2023/10/31 09:51:05;;;;;;;0.30;0.20;;;;;;;14.76;85.01;99089.50;5055458;28;20474;-53
2023/10/31 09:53:37;;;;;;;0.30;0.20;;;;;;;14.87;84.27;99097.69;5055021;28;20843;-53
2023/10/31 09:56:04;;;;;;;0.30;0.20;;;;;;;14.92;84.43;99089.34;5054875;28;20421;-52
2023/10/31 09:58:30;;;;;;;0.30;0.20;;;;;;;14.98;83.55;99092.50;5050765;28;20454;-53
2023/10/31 10:00:57;;;;;;;2.50;2.40;;;;;;;15.02;83.30;99093.16;5054563;28;20479;-53
2023/10/31 10:05:58;;;;;;;0.30;0.20;;;;;;;15.38;82.81;99085.34;5013464;28;20923;-54
2023/10/31 10:08:25;;;;;;;0.30;0.20;;;;;;;15.38;81.46;99085.34;5014928;28;20505;-55
2023/10/31 10:10:52;;;;;;;0.30;0.20;;;;;;;15.48;81.25;99084.69;5014928;28;20460;-54
2023/10/31 10:13:20;;;;;;;0.30;0.20;;;;;;;15.48;81.30;99084.69;5015008;28;20452;-54
2023/10/31 10:15:49;;;;;;;0.30;0.20;;;;;;;15.60;81.39;99095.47;5003030;28;20484;-53
2023/10/31 10:18:30;;;;;;;0.30;0.20;;;;;;;15.84;80.93;99089.41;5000114;28;20449;-54
2023/10/31 10:21:01;;;;;;;0.30;0.20;;;;;;;15.65;79.42;99093.34;4995284;28;20536;-53
2023/10/31 10:23:28;;;;;;;0.30;0.20;;;;;;;16.02;79.90;99088.09;4994944;28;20476;-54
2023/10/31 10:25:57;;;;;;;0.30;0.20;;;;;;;15.96;78.15;99102.81;4995115;28;20853;-54
2023/10/31 10:28:24;;;;;;;0.30;0.20;;;;;;;15.92;78.80;99101.31;4995171;28;20473;-54
2023/10/31 10:30:53;;;;;;;0.30;0.20;;;;;;;15.96;78.51;99104.63;4995436;28;21184;-54
2023/10/31 10:33:21;;;;;;;0.30;0.20;;;;;;;16.03;78.76;99108.59;4995108;28;20440;-54
2023/10/31 10:35:47;;;;;;;0.30;0.20;;;;;;;16.26;78.59;99107.84;4994890;28;20463;-55
2023/10/31 10:38:16;;;;;;;0.30;0.20;;;;;;;15.88;77.25;99120.38;4995048;28;20454;-55
2023/10/31 10:40:48;;;;;;;0.30;0.20;;;;;;;16.07;77.57;99114.63;4995190;28;20424;-55
2023/10/31 10:43:25;;;;;;;0.30;0.20;;;;;;;15.87;78.70;99118.66;4995050;28;20515;-54
2023/10/31 10:45:59;;;;;;;0.30;0.20;;;;;;;16.14;78.94;99122.09;4994775;28;20531;-54
2023/10/31 10:48:27;;;;;;;0.30;0.20;;;;;;;16.23;78.03;99107.19;4994873;28;20446;-54
2023/10/31 10:51:11;;;;;;;0.30;0.20;;;;;;;16.19;77.79;99103.88;4994939;28;20434;-53
2023/10/31 10:54:01;;;;;;;0.30;0.20;;;;;;;16.04;77.99;99102.28;4994800;28;20423;-53
2023/10/31 10:56:38;;;;;;;0.30;0.20;;;;;;;15.99;78.69;99096.38;4994375;28;20456;-54
2023/10/31 10:59:18;;;;;;;0.30;0.20;;;;;;;16.15;78.02;99102.38;4994412;28;20997;-54
2023/10/31 11:01:47;;;;;;;0.30;0.20;;;;;;;15.88;78.39;99096.25;4994795;28;20901;-54
2023/10/31 11:04:14;;;;;;;0.30;0.20;;;;;;;15.95;77.32;99101.09;4993785;28;20481;-53
2023/10/31 11:06:41;;;;;;;0.30;0.20;;;;;;;16.07;78.47;99094.03;4993595;28;20435;-53
2023/10/31 11:09:10;;;;;;;0.30;0.30;;;;;;;15.64;78.29;99102.38;4993147;28;20485;-53
2023/10/31 11:11:40;;;;;;;0.30;0.20;;;;;;;15.63;78.12;99103.34;4993852;28;20432;-53
2023/10/31 11:14:08;;;;;;;0.30;0.20;;;;;;;15.55;78.49;99091.38;4993797;28;20450;-53
2023/10/31 11:16:44;;;;;;;0.30;0.20;;;;;;;15.69;78.70;99081.47;5006611;28;20506;-53
2023/10/31 11:19:11;;;;;;;0.30;0.20;;;;;;;15.79;77.82;99086.19;4993412;28;20418;-53
2023/10/31 11:21:57;;;;;;;0.30;0.20;;;;;;;15.62;77.98;99080.19;4993311;28;20565;-53
2023/10/31 11:24:28;;;;;;;0.30;0.20;;;;;;;15.90;78.02;99081.81;4993208;28;20508;-53
2023/10/31 11:27:00;;;;;;;0.30;0.20;;;;;;;16.25;77.38;99079.31;4993135;28;20451;-53
2023/10/31 11:29:27;;;;;;;0.30;0.20;;;;;;;16.60;75.68;99075.91;4992673;28;20578;-53
2023/10/31 11:31:55;;;;;;;0.30;0.20;;;;;;;16.64;75.53;99069.34;4993133;28;20511;-53
2023/10/31 11:34:22;;;;;;;0.30;0.20;;;;;;;16.80;75.26;99072.66;4993134;28;20575;-53